createdAt,value
2022-11-15T00:01:19.692Z,8.00
2022-11-15T00:03:52.847Z,8.00
2022-11-15T00:06:20.926Z,8.00
2022-11-15T00:08:49.033Z,7.90
2022-11-15T00:11:17.047Z,7.90
2022-11-15T00:13:45.056Z,7.90
2022-11-15T00:16:13.145Z,7.90
2022-11-15T00:18:44.081Z,7.90
2022-11-15T00:21:16.112Z,7.90
2022-11-15T00:23:44.113Z,7.90
2022-11-15T00:26:13.105Z,7.90
2022-11-15T00:28:41.192Z,7.90
2022-11-15T00:31:10.752Z,7.80
2022-11-15T00:33:38.771Z,7.90
2022-11-15T00:36:08.058Z,7.80
2022-11-15T00:38:38.318Z,7.80
2022-11-15T00:41:09.565Z,7.80
2022-11-15T00:43:40.724Z,7.80
2022-11-15T00:46:10.529Z,7.70
2022-11-15T00:48:38.688Z,7.70
2022-11-15T00:51:06.980Z,7.70
2022-11-15T00:53:35.273Z,7.60
2022-11-15T00:56:04.897Z,7.60
2022-11-15T00:58:32.915Z,7.60
2022-11-15T01:01:07.900Z,7.60
2022-11-15T01:03:36.374Z,7.60
2022-11-15T01:06:04.790Z,7.60
2022-11-15T01:08:32.767Z,7.60
2022-11-15T01:11:06.580Z,7.50
2022-11-15T01:13:35.342Z,7.50
2022-11-15T01:16:08.145Z,7.50
2022-11-15T01:18:36.108Z,7.50
2022-11-15T01:21:06.871Z,7.50
2022-11-15T01:23:35.084Z,7.50
2022-11-15T01:26:03.643Z,7.50
2022-11-15T01:28:33.785Z,7.40
2022-11-15T01:31:02.025Z,7.50
2022-11-15T01:33:30.848Z,7.40
2022-11-15T01:35:59.060Z,7.40
2022-11-15T01:38:27.088Z,7.40
2022-11-15T01:40:55.167Z,7.40
2022-11-15T01:43:24.363Z,7.30
2022-11-15T01:45:55.564Z,7.30
2022-11-15T01:48:24.238Z,7.30
2022-11-15T01:50:52.537Z,7.30
2022-11-15T01:53:22.085Z,7.30
2022-11-15T01:55:50.130Z,7.20
2022-11-15T01:58:18.621Z,7.20
2022-11-15T02:00:46.750Z,7.20
2022-11-15T02:03:16.165Z,7.20
2022-11-15T02:05:45.301Z,7.20
2022-11-15T02:08:20.972Z,7.20
2022-11-15T02:10:49.311Z,7.20
2022-11-15T02:13:18.407Z,7.10
2022-11-15T02:15:51.599Z,7.20
2022-11-15T02:18:24.997Z,7.10
2022-11-15T02:21:04.397Z,7.20
2022-11-15T02:23:59.346Z,7.20
2022-11-15T02:26:46.148Z,7.10
2022-11-15T02:29:16.802Z,7.20
2022-11-15T02:31:50.622Z,7.20
2022-11-15T02:34:22.484Z,7.20
2022-11-15T02:36:56.444Z,7.20
2022-11-15T02:39:29.747Z,7.20
2022-11-15T02:42:00.079Z,7.20
2022-11-15T02:44:30.482Z,7.30
2022-11-15T02:47:18.538Z,7.30
2022-11-15T02:49:48.063Z,7.30
2022-11-15T02:52:16.818Z,7.30
2022-11-15T02:54:44.889Z,7.30
2022-11-15T02:57:14.606Z,7.30
2022-11-15T03:00:00.622Z,7.30
2022-11-15T03:02:38.731Z,7.30
2022-11-15T03:05:11.452Z,7.40
2022-11-15T03:07:42.312Z,7.40
2022-11-15T03:10:12.505Z,7.40
2022-11-15T03:12:45.829Z,7.40
2022-11-15T03:15:17.526Z,7.40
2022-11-15T03:17:50.815Z,7.50
2022-11-15T03:20:19.296Z,7.50
2022-11-15T03:22:48.915Z,7.50
2022-11-15T03:25:19.674Z,7.60
2022-11-15T03:27:50.600Z,7.90
2022-11-15T03:30:19.099Z,7.60
2022-11-15T03:32:49.067Z,7.60
2022-11-15T03:35:19.173Z,7.70
2022-11-15T03:37:50.198Z,7.70
2022-11-15T03:40:32.727Z,7.70
2022-11-15T03:43:04.002Z,7.70
2022-11-15T03:45:34.113Z,7.80
2022-11-15T03:48:04.955Z,7.80
2022-11-15T03:50:33.932Z,7.80
2022-11-15T03:53:02.397Z,7.90
2022-11-15T03:55:30.562Z,7.90
2022-11-15T03:57:59.859Z,7.90
2022-11-15T04:00:28.064Z,7.90
2022-11-15T04:02:56.046Z,7.90
2022-11-15T04:05:25.459Z,8.00
2022-11-15T04:07:53.515Z,8.00
2022-11-15T04:10:21.774Z,8.00
2022-11-15T04:12:49.745Z,8.10
2022-11-15T04:15:18.679Z,8.10
2022-11-15T04:17:47.828Z,8.10
2022-11-15T04:20:33.843Z,8.10
2022-11-15T04:23:21.647Z,8.10
2022-11-15T04:25:51.596Z,8.20
2022-11-15T04:28:19.574Z,8.20
2022-11-15T04:30:47.834Z,8.20
2022-11-15T04:33:16.061Z,8.20
2022-11-15T04:35:44.370Z,8.30
2022-11-15T04:38:12.694Z,8.30
2022-11-15T04:40:40.776Z,8.30
2022-11-15T04:43:08.818Z,8.30
2022-11-15T04:45:36.916Z,8.30
2022-11-15T04:48:05.173Z,8.40
2022-11-15T04:50:33.215Z,8.40
2022-11-15T04:53:01.139Z,8.40
2022-11-15T04:55:30.521Z,8.40
2022-11-15T04:58:01.636Z,8.50
2022-11-15T05:00:30.322Z,8.50
2022-11-15T05:03:16.119Z,8.10
2022-11-15T05:05:44.184Z,8.60
2022-11-15T05:08:12.179Z,8.60
2022-11-15T05:10:41.531Z,8.60
2022-11-15T05:13:09.519Z,8.60
2022-11-15T05:15:37.661Z,8.60
2022-11-15T05:18:05.680Z,8.70
2022-11-15T05:20:33.911Z,8.70
2022-11-15T05:23:01.945Z,8.80
2022-11-15T05:25:30.054Z,8.80
2022-11-15T05:27:59.403Z,8.80
2022-11-15T05:30:27.456Z,8.90
2022-11-15T05:32:55.613Z,8.90
2022-11-15T05:35:29.283Z,8.90
2022-11-15T05:37:57.305Z,9.00
2022-11-15T05:40:25.726Z,9.00
2022-11-15T05:42:53.878Z,9.00
2022-11-15T05:45:40.950Z,9.00
2022-11-15T05:48:10.245Z,9.10
2022-11-15T05:50:38.984Z,9.10
2022-11-15T05:53:07.762Z,9.10
2022-11-15T05:55:36.074Z,9.10
2022-11-15T05:58:04.114Z,9.20
2022-11-15T06:00:32.202Z,9.20
2022-11-15T06:03:01.562Z,9.20
2022-11-15T06:05:29.605Z,9.20
2022-11-15T06:07:59.503Z,9.30
2022-11-15T06:10:27.560Z,9.30
2022-11-15T06:12:59.182Z,9.30
2022-11-15T06:15:27.225Z,9.30
2022-11-15T06:17:58.431Z,9.40
2022-11-15T06:20:28.045Z,9.40
2022-11-15T06:22:58.425Z,9.40
2022-11-15T06:25:26.684Z,9.40
2022-11-15T06:27:55.055Z,9.40
2022-11-15T06:30:23.347Z,9.50
2022-11-15T06:32:51.381Z,9.50
2022-11-15T06:35:19.946Z,9.50
2022-11-15T06:37:49.364Z,9.60
2022-11-15T06:40:17.758Z,9.60
2022-11-15T06:42:45.758Z,9.60
2022-11-15T06:45:13.779Z,9.60
2022-11-15T06:47:46.137Z,9.70
2022-11-15T06:50:14.265Z,9.70
2022-11-15T06:52:42.228Z,9.70
2022-11-15T06:55:11.930Z,9.70
2022-11-15T06:57:47.889Z,9.80
2022-11-15T07:00:16.854Z,9.80
2022-11-15T07:02:44.833Z,9.80
2022-11-15T07:05:12.918Z,9.90
2022-11-15T07:08:10.612Z,9.90
2022-11-15T07:10:41.766Z,10.00
2022-11-15T07:13:09.720Z,10.00
2022-11-15T07:15:37.752Z,10.00
2022-11-15T07:18:06.046Z,10.00
2022-11-15T07:20:36.242Z,10.00
2022-11-15T07:23:04.774Z,10.10
2022-11-15T07:25:32.949Z,10.10
2022-11-15T07:28:02.472Z,10.10
2022-11-15T07:30:31.096Z,10.10
2022-11-15T07:33:00.120Z,10.10
2022-11-15T07:35:28.914Z,10.20
2022-11-15T07:37:57.784Z,10.20
2022-11-15T07:40:26.304Z,10.20
2022-11-15T07:42:58.062Z,10.20
2022-11-15T07:45:28.084Z,10.30
2022-11-15T07:47:56.885Z,10.30
2022-11-15T07:50:25.184Z,10.30
2022-11-15T07:52:57.494Z,10.30
2022-11-15T07:55:25.822Z,10.30
2022-11-15T07:57:53.831Z,10.40
2022-11-15T08:00:21.938Z,10.40
2022-11-15T08:02:51.550Z,10.40
2022-11-15T08:05:19.681Z,10.40
2022-11-15T08:08:13.982Z,10.40
2022-11-15T08:10:42.144Z,10.40
2022-11-15T08:13:10.898Z,10.50
2022-11-15T08:15:39.337Z,10.50
2022-11-15T08:18:12.487Z,10.40
2022-11-15T08:20:40.670Z,10.50
2022-11-15T08:23:08.892Z,10.50
2022-11-15T08:25:37.361Z,10.60
2022-11-15T08:28:06.448Z,10.60
2022-11-15T08:30:42.566Z,10.60
2022-11-15T08:33:14.267Z,10.60
2022-11-15T08:35:42.421Z,10.60
2022-11-15T08:38:10.621Z,10.70
2022-11-15T08:40:38.864Z,10.70
2022-11-15T08:43:06.901Z,10.70
2022-11-15T08:45:36.425Z,10.70
2022-11-15T08:48:04.797Z,10.80
2022-11-15T08:50:34.172Z,10.80
2022-11-15T08:53:06.240Z,10.80
2022-11-15T08:55:34.373Z,10.80
2022-11-15T08:58:02.392Z,10.80
2022-11-15T09:00:30.458Z,10.80
2022-11-15T09:02:58.521Z,10.90
2022-11-15T09:05:26.565Z,10.90
2022-11-15T09:07:56.526Z,10.90
2022-11-15T09:10:25.183Z,10.90
2022-11-15T09:12:53.470Z,10.90
2022-11-15T09:15:21.918Z,11.00
2022-11-15T09:17:50.083Z,11.00
2022-11-15T09:20:18.365Z,11.00
2022-11-15T09:22:46.341Z,11.00
2022-11-15T09:25:15.761Z,11.00
2022-11-15T09:27:43.811Z,11.00
2022-11-15T09:30:12.330Z,11.10
2022-11-15T09:32:40.378Z,11.10
2022-11-15T09:35:08.686Z,11.10
2022-11-15T09:37:36.748Z,11.10
2022-11-15T09:40:05.090Z,11.20
2022-11-15T09:42:40.678Z,11.20
2022-11-15T09:45:15.399Z,11.20
2022-11-15T09:47:51.767Z,11.30
2022-11-15T09:50:24.236Z,11.30
2022-11-15T09:52:52.320Z,11.30
2022-11-15T09:55:22.501Z,11.30
2022-11-15T09:57:54.474Z,11.40
2022-11-15T10:00:48.178Z,11.40
2022-11-15T10:03:18.621Z,11.40
2022-11-15T10:05:49.202Z,11.40
2022-11-15T10:08:27.599Z,11.50
2022-11-15T10:11:22.818Z,11.50
2022-11-15T10:13:48.649Z,11.60
2022-11-15T10:16:25.228Z,11.60
2022-11-15T10:18:56.683Z,11.70
2022-11-15T10:21:29.689Z,11.70
2022-11-15T10:23:57.725Z,11.80
2022-11-15T10:26:26.015Z,11.80
2022-11-15T10:28:55.457Z,11.90
2022-11-15T10:31:24.409Z,11.90
2022-11-15T10:33:53.117Z,12.00
2022-11-15T10:36:26.573Z,12.00
2022-11-15T10:38:56.497Z,12.10
2022-11-15T10:41:25.293Z,12.10
2022-11-15T10:44:05.375Z,12.10
2022-11-15T10:46:46.081Z,12.20
2022-11-15T10:49:15.352Z,12.20
2022-11-15T10:51:44.670Z,12.20
2022-11-15T10:54:18.430Z,12.30
2022-11-15T10:56:51.482Z,12.30
2022-11-15T10:59:25.024Z,12.30
2022-11-15T11:01:53.059Z,12.30
2022-11-15T11:04:21.155Z,12.40
2022-11-15T11:06:50.209Z,12.40
2022-11-15T11:09:27.535Z,12.40
2022-11-15T11:11:55.713Z,12.50
2022-11-15T11:14:28.171Z,12.50
2022-11-15T11:16:57.140Z,12.50
2022-11-15T11:19:40.097Z,12.60
2022-11-15T11:22:13.296Z,12.60
2022-11-15T11:24:46.182Z,12.70
2022-11-15T11:27:23.967Z,12.70
2022-11-15T11:30:00.191Z,12.80
2022-11-15T11:32:36.470Z,12.80
2022-11-15T11:35:10.891Z,12.80
2022-11-15T11:37:41.973Z,12.90
2022-11-15T11:40:18.152Z,12.90
2022-11-15T11:43:00.262Z,12.90
2022-11-15T11:45:36.333Z,12.90
2022-11-15T11:48:11.077Z,13.00
2022-11-15T11:50:39.938Z,13.00
2022-11-15T11:53:13.225Z,13.00
2022-11-15T11:55:44.468Z,13.10
2022-11-15T11:58:14.209Z,13.10
2022-11-15T12:00:49.048Z,13.20
2022-11-15T12:03:23.264Z,13.20
2022-11-15T12:05:52.227Z,13.30
2022-11-15T12:08:38.201Z,13.30
2022-11-15T12:11:10.690Z,13.40
2022-11-15T12:13:39.596Z,13.40
2022-11-15T12:16:14.211Z,13.40
2022-11-15T12:18:44.370Z,13.40
2022-11-15T12:21:16.005Z,13.50
2022-11-15T12:23:47.119Z,13.70
2022-11-15T12:26:18.022Z,13.80
2022-11-15T12:29:05.942Z,13.80
2022-11-15T12:31:38.690Z,13.80
2022-11-15T12:34:15.249Z,13.90
2022-11-15T12:36:45.109Z,13.90
2022-11-15T12:39:13.642Z,13.90
2022-11-15T12:41:42.445Z,14.10
2022-11-15T12:44:13.224Z,14.50
2022-11-15T12:47:02.150Z,14.90
2022-11-15T12:49:47.812Z,15.30
2022-11-15T12:52:16.442Z,15.50
2022-11-15T12:55:05.421Z,15.70
2022-11-15T12:57:40.962Z,16.00
2022-11-15T13:00:28.291Z,16.20
2022-11-15T13:03:18.382Z,16.40
2022-11-15T13:05:57.055Z,16.60
2022-11-15T13:08:38.490Z,16.90
2022-11-15T13:11:21.900Z,17.10
2022-11-15T13:13:50.434Z,17.30
2022-11-15T13:16:22.182Z,17.30
2022-11-15T13:18:55.516Z,17.10
2022-11-15T13:21:43.731Z,17.00
2022-11-15T13:24:16.069Z,17.00
2022-11-15T13:26:44.397Z,16.80
2022-11-15T13:29:17.449Z,16.60
2022-11-15T13:31:46.006Z,16.50
2022-11-15T13:34:50.956Z,16.60
2022-11-15T13:37:34.397Z,16.90
2022-11-15T13:40:12.887Z,17.20
2022-11-15T13:42:45.594Z,17.40
2022-11-15T13:45:15.794Z,17.70
2022-11-15T13:47:43.881Z,17.70
2022-11-15T13:50:12.680Z,17.70
2022-11-15T13:52:44.707Z,17.70
2022-11-15T13:55:15.272Z,17.60
2022-11-15T13:57:44.298Z,17.50
2022-11-15T14:00:26.753Z,17.40
2022-11-15T14:02:55.841Z,17.40
2022-11-15T14:05:24.915Z,17.20
2022-11-15T14:07:58.047Z,17.00
2022-11-15T14:10:33.224Z,17.00
2022-11-15T14:13:01.549Z,17.00
2022-11-15T14:15:31.356Z,17.00
2022-11-15T14:17:59.421Z,17.00
2022-11-15T14:20:33.570Z,17.00
2022-11-15T14:23:03.975Z,17.00
2022-11-15T14:25:32.548Z,17.00
2022-11-15T14:28:10.957Z,16.90
2022-11-15T14:30:39.040Z,16.90
2022-11-15T14:33:19.320Z,16.90
2022-11-15T14:35:47.433Z,16.80
2022-11-15T14:38:16.803Z,16.80
2022-11-15T14:40:45.180Z,16.70
2022-11-15T14:43:13.832Z,16.60
2022-11-15T14:45:41.843Z,16.50
2022-11-15T14:48:09.846Z,16.50
2022-11-15T14:50:38.253Z,16.30
2022-11-15T14:53:06.688Z,16.30
2022-11-15T14:55:37.674Z,16.20
2022-11-15T14:58:06.185Z,16.00
2022-11-15T15:00:35.559Z,15.90
2022-11-15T15:03:04.242Z,15.80
2022-11-15T15:05:33.440Z,15.70
2022-11-15T15:08:01.603Z,15.60
2022-11-15T15:10:40.133Z,15.40
2022-11-15T15:13:16.985Z,15.50
2022-11-15T15:15:45.000Z,15.20
2022-11-15T15:18:13.234Z,15.10
2022-11-15T15:20:42.192Z,15.00
2022-11-15T15:23:16.067Z,14.90
2022-11-15T15:25:44.640Z,14.80
2022-11-15T15:28:14.053Z,14.70
2022-11-15T15:30:42.077Z,14.60
2022-11-15T15:33:10.095Z,14.50
2022-11-15T15:35:44.497Z,14.40
2022-11-15T15:38:13.092Z,14.30
2022-11-15T15:40:41.398Z,14.20
2022-11-15T15:43:10.256Z,14.10
2022-11-15T15:45:40.361Z,14.00
2022-11-15T15:48:10.589Z,13.90
2022-11-15T15:50:39.280Z,13.80
2022-11-15T15:53:09.011Z,13.70
2022-11-15T15:55:36.984Z,13.60
2022-11-15T15:58:05.871Z,13.50
2022-11-15T16:00:34.686Z,13.50
2022-11-15T16:03:04.136Z,13.40
2022-11-15T16:05:32.272Z,13.30
2022-11-15T16:08:00.435Z,13.10
2022-11-15T16:10:29.429Z,13.20
2022-11-15T16:12:58.455Z,13.20
2022-11-15T16:15:26.998Z,13.10
2022-11-15T16:17:55.791Z,13.10
2022-11-15T16:20:29.906Z,13.00
2022-11-15T16:22:57.874Z,12.90
2022-11-15T16:25:25.873Z,12.90
2022-11-15T16:27:54.171Z,12.80
2022-11-15T16:30:23.159Z,12.70
2022-11-15T16:32:51.173Z,12.60
2022-11-15T16:35:20.149Z,12.60
2022-11-15T16:37:50.178Z,12.60
2022-11-15T16:40:28.852Z,12.50
2022-11-15T16:42:57.717Z,12.50
2022-11-15T16:45:25.742Z,12.40
2022-11-15T16:47:54.557Z,12.40
2022-11-15T16:50:24.276Z,12.30
2022-11-15T16:52:54.357Z,12.30
2022-11-15T16:55:22.961Z,12.20
2022-11-15T16:57:51.252Z,12.20
2022-11-15T17:00:19.971Z,12.10
2022-11-15T17:02:48.887Z,12.10
2022-11-15T17:05:20.207Z,12.00
2022-11-15T17:07:50.534Z,12.00
2022-11-15T17:10:20.043Z,12.00
2022-11-15T17:12:48.080Z,11.90
2022-11-15T17:15:16.236Z,11.90
2022-11-15T17:17:44.252Z,11.90
2022-11-15T17:20:15.663Z,11.80
2022-11-15T17:22:43.837Z,11.80
2022-11-15T17:25:11.907Z,11.70
2022-11-15T17:27:41.477Z,11.70
2022-11-15T17:30:11.495Z,11.70
2022-11-15T17:32:39.525Z,11.70
2022-11-15T17:35:13.746Z,11.70
2022-11-15T17:37:43.409Z,11.70
2022-11-15T17:40:11.981Z,11.60
2022-11-15T17:42:43.131Z,11.60
2022-11-15T17:45:12.071Z,11.60
2022-11-15T17:47:40.135Z,11.60
2022-11-15T17:50:08.290Z,11.50
2022-11-15T17:52:36.328Z,11.50
2022-11-15T17:55:04.476Z,11.60
2022-11-15T17:57:32.471Z,11.50
2022-11-15T18:00:02.002Z,11.60
2022-11-15T18:02:30.211Z,11.50
2022-11-15T18:04:58.225Z,11.50
2022-11-15T18:07:26.240Z,11.50
2022-11-15T18:09:54.481Z,11.50
2022-11-15T18:12:22.489Z,11.60
2022-11-15T18:14:50.528Z,11.60
2022-11-15T18:17:20.067Z,11.60
2022-11-15T18:19:48.624Z,11.60
2022-11-15T18:22:16.665Z,11.60
2022-11-15T18:24:46.973Z,11.60
2022-11-15T18:27:15.061Z,11.70
2022-11-15T18:29:44.829Z,11.70
2022-11-15T18:32:15.181Z,11.70
2022-11-15T18:34:44.656Z,11.70
2022-11-15T18:37:12.631Z,11.70
2022-11-15T18:39:40.603Z,11.70
2022-11-15T18:42:08.693Z,11.70
2022-11-15T18:44:36.667Z,11.70
2022-11-15T18:47:04.728Z,11.80
2022-11-15T18:49:32.877Z,11.80
2022-11-15T18:52:02.420Z,11.80
2022-11-15T18:54:31.616Z,11.80
2022-11-15T18:57:00.141Z,11.80
2022-11-15T18:59:28.958Z,11.80
2022-11-15T19:01:56.985Z,11.80
2022-11-15T19:04:25.170Z,11.80
2022-11-15T19:06:53.931Z,11.80
2022-11-15T19:09:27.252Z,11.90
2022-11-15T19:11:55.254Z,11.80
2022-11-15T19:14:25.262Z,11.90
2022-11-15T19:16:54.653Z,11.90
2022-11-15T19:19:23.370Z,11.90
2022-11-15T19:21:51.630Z,11.90
2022-11-15T19:24:19.767Z,11.90
2022-11-15T19:26:49.191Z,11.90
2022-11-15T19:29:17.362Z,11.90
2022-11-15T19:31:45.611Z,11.90
2022-11-15T19:34:13.937Z,11.90
2022-11-15T19:36:42.927Z,11.90
2022-11-15T19:39:12.922Z,11.90
2022-11-15T19:41:42.328Z,11.90
2022-11-15T19:44:19.318Z,11.90
2022-11-15T19:46:47.439Z,11.90
2022-11-15T19:49:15.524Z,11.90
2022-11-15T19:51:45.161Z,11.90
2022-11-15T19:54:13.599Z,12.00
2022-11-15T19:56:41.693Z,12.00
2022-11-15T19:59:11.660Z,12.00
2022-11-15T20:01:42.120Z,12.00
2022-11-15T20:04:10.869Z,12.00
2022-11-15T20:06:41.468Z,11.90
2022-11-15T20:09:12.279Z,12.00
2022-11-15T20:11:40.375Z,11.90
2022-11-15T20:14:09.634Z,11.90
2022-11-15T20:16:37.677Z,11.90
2022-11-15T20:19:07.376Z,11.90
2022-11-15T20:21:35.849Z,11.90
2022-11-15T20:24:03.854Z,11.90
2022-11-15T20:26:32.276Z,11.90
2022-11-15T20:29:03.147Z,11.90
2022-11-15T20:31:33.267Z,11.90
2022-11-15T20:34:01.441Z,11.90
2022-11-15T20:36:31.375Z,11.90
2022-11-15T20:39:00.227Z,11.90
2022-11-15T20:41:28.593Z,11.90
2022-11-15T20:43:56.803Z,11.90
2022-11-15T20:46:24.984Z,11.90
2022-11-15T20:48:53.047Z,11.90
2022-11-15T20:51:21.356Z,11.90
2022-11-15T20:53:50.690Z,11.90
2022-11-15T20:56:19.591Z,11.90
2022-11-15T20:58:50.094Z,11.90
2022-11-15T21:01:23.105Z,11.90
2022-11-15T21:03:51.507Z,11.90
2022-11-15T21:06:21.034Z,11.90
2022-11-15T21:09:08.667Z,11.90
2022-11-15T21:11:54.666Z,11.90
2022-11-15T21:14:22.639Z,11.80
2022-11-15T21:16:50.613Z,11.90
2022-11-15T21:19:22.649Z,11.80
2022-11-15T21:21:53.842Z,11.90
2022-11-15T21:24:24.688Z,11.80
2022-11-15T21:26:52.754Z,11.80
2022-11-15T21:29:20.730Z,11.80
2022-11-15T21:31:49.386Z,11.80
2022-11-15T21:34:17.481Z,11.80
2022-11-15T21:36:45.633Z,11.80
2022-11-15T21:39:13.580Z,11.80
2022-11-15T21:41:42.968Z,11.80
2022-11-15T21:44:11.026Z,11.80
2022-11-15T21:46:39.193Z,11.80
2022-11-15T21:49:07.496Z,11.80
2022-11-15T21:51:35.934Z,11.80
2022-11-15T21:54:03.920Z,11.80
2022-11-15T21:56:32.402Z,11.80
2022-11-15T21:59:02.499Z,11.80
2022-11-15T22:01:48.059Z,11.80
2022-11-15T22:04:16.293Z,11.80
2022-11-15T22:06:44.335Z,11.80
2022-11-15T22:09:12.314Z,11.80
2022-11-15T22:11:40.356Z,11.80
2022-11-15T22:14:11.968Z,11.80
2022-11-15T22:16:40.025Z,11.80
2022-11-15T22:19:08.103Z,11.80
2022-11-15T22:21:38.050Z,11.80
2022-11-15T22:24:06.663Z,11.80
2022-11-15T22:26:34.838Z,11.80
2022-11-15T22:29:03.052Z,11.80
2022-11-15T22:31:32.580Z,11.80
2022-11-15T22:34:00.699Z,11.80
2022-11-15T22:36:42.463Z,11.80
2022-11-15T22:39:17.051Z,11.80
2022-11-15T22:41:45.170Z,11.80
2022-11-15T22:44:13.461Z,11.80
2022-11-15T22:46:42.903Z,11.80
2022-11-15T22:49:11.068Z,11.80
2022-11-15T22:51:40.539Z,11.80
2022-11-15T22:54:08.864Z,11.80
2022-11-15T22:56:36.999Z,11.80
2022-11-15T22:59:05.066Z,11.80
2022-11-15T23:01:33.226Z,11.80
2022-11-15T23:04:02.901Z,11.70
2022-11-15T23:06:31.067Z,11.70
2022-11-15T23:08:59.113Z,11.70
2022-11-15T23:11:44.606Z,11.80
2022-11-15T23:14:12.722Z,11.70
2022-11-15T23:16:40.886Z,11.80
2022-11-15T23:19:11.614Z,11.70
2022-11-15T23:21:58.261Z,11.70
2022-11-15T23:24:26.514Z,11.70
2022-11-15T23:26:55.324Z,11.70
2022-11-15T23:29:25.015Z,11.70
2022-11-15T23:32:11.240Z,11.70
2022-11-15T23:34:41.812Z,11.70
2022-11-15T23:37:10.657Z,11.70
2022-11-15T23:39:39.125Z,11.70
2022-11-15T23:42:09.288Z,11.70
2022-11-15T23:44:37.780Z,11.70
2022-11-15T23:47:05.946Z,11.70
2022-11-15T23:49:34.253Z,11.70
2022-11-15T23:52:03.899Z,11.70
2022-11-15T23:54:31.936Z,11.70
2022-11-15T23:57:00.055Z,11.70
2022-11-15T23:59:28.188Z,11.70
